Time;durP1;ratioP1;P1;durP2;ratioP2;P2;SDS_P1;SDS_P2;PMS_P1;PMS_P2;Temp;Humidity;BMP_temperature;BMP_pressure;BME280_temperature;BME280_humidity;BME280_pressure;Samples;Min_cycle;Max_cycle;Signal;HPM_P1;HPM_P2
2024/02/23 00:00:38;;;;;;;0.40;0.30;;;5.90;99.90;;;;;;5014488;28;20064;-55
2024/02/23 00:03:04;;;;;;;0.20;0.20;;;5.80;99.90;;;;;;5014439;28;20034;-54
2024/02/23 00:05:29;;;;;;;0.53;0.53;;;5.80;99.90;;;;;;5014358;28;20446;-57
2024/02/23 00:07:55;;;;;;;0.50;0.20;;;5.70;99.90;;;;;;5014112;28;20113;-55
2024/02/23 00:10:21;;;;;;;0.67;0.30;;;5.70;99.90;;;;;;5013898;28;20034;-55
2024/02/23 00:12:47;;;;;;;1.03;0.10;;;5.70;99.90;;;;;;5014207;28;20088;-54
2024/02/23 00:15:13;;;;;;;0.83;0.50;;;5.70;99.90;;;;;;5012576;28;20030;-57
2024/02/23 00:17:39;;;;;;;0.60;0.30;;;5.70;99.90;;;;;;5013925;28;20032;-55
2024/02/23 00:20:10;;;;;;;0.40;0.30;;;5.60;99.90;;;;;;5013875;28;20561;-56
2024/02/23 00:22:36;;;;;;;0.30;0.30;;;5.60;99.90;;;;;;5014053;28;20487;-57
2024/02/23 00:25:01;;;;;;;0.40;0.40;;;5.60;99.90;;;;;;5013922;28;20029;-55
2024/02/23 00:27:27;;;;;;;0.97;0.50;;;5.60;99.90;;;;;;5012409;28;20042;-52
2024/02/23 00:29:52;;;;;;;0.73;0.60;;;5.60;99.90;;;;;;5013704;28;20520;-52
2024/02/23 00:32:18;;;;;;;1.80;0.50;;;5.60;99.90;;;;;;5013896;28;20029;-57
2024/02/23 00:34:44;;;;;;;0.90;0.70;;;5.60;99.90;;;;;;5013853;28;20036;-55
2024/02/23 00:37:09;;;;;;;1.80;0.57;;;5.60;99.90;;;;;;5013766;28;20083;-53
2024/02/23 00:39:36;;;;;;;0.80;0.50;;;5.60;99.90;;;;;;5013591;28;20117;-54
2024/02/23 00:42:02;;;;;;;1.20;0.63;;;5.60;99.90;;;;;;5013358;28;20040;-54
2024/02/23 00:44:27;;;;;;;0.83;0.50;;;5.70;99.90;;;;;;5013057;28;20491;-54
2024/02/23 00:46:53;;;;;;;1.37;0.90;;;5.70;99.90;;;;;;5013413;28;20375;-54
2024/02/23 00:49:19;;;;;;;1.60;0.80;;;5.70;99.90;;;;;;5013191;28;20030;-53
2024/02/23 00:51:44;;;;;;;0.63;0.50;;;5.80;99.90;;;;;;5013455;28;20030;-52
2024/02/23 00:54:10;;;;;;;0.90;0.70;;;5.80;99.90;;;;;;5013701;28;20484;-52
2024/02/23 00:56:35;;;;;;;0.67;0.60;;;5.80;99.90;;;;;;5013757;28;20072;-53
2024/02/23 00:59:01;;;;;;;0.93;0.60;;;5.80;99.90;;;;;;5013973;28;20030;-56
2024/02/23 01:01:28;;;;;;;0.50;0.50;;;5.70;99.90;;;;;;5014334;28;20099;-55
2024/02/23 01:03:54;;;;;;;1.27;0.73;;;5.70;99.90;;;;;;5014614;28;20109;-53
2024/02/23 01:06:19;;;;;;;3.13;0.60;;;5.70;99.90;;;;;;5012978;28;20060;-54
2024/02/23 01:08:45;;;;;;;2.50;0.90;;;5.70;99.90;;;;;;5014157;28;20026;-53
2024/02/23 01:11:11;;;;;;;0.87;0.63;;;5.70;99.90;;;;;;5012698;28;20077;-56
2024/02/23 01:13:36;;;;;;;1.83;0.80;;;5.70;99.90;;;;;;5013846;28;20427;-57
2024/02/23 01:16:02;;;;;;;1.90;0.70;;;5.70;99.90;;;;;;5012693;28;20033;-54
2024/02/23 01:18:28;;;;;;;1.83;0.63;;;5.60;99.90;;;;;;5012848;28;20487;-54
2024/02/23 01:20:53;;;;;;;1.97;0.80;;;5.60;99.90;;;;;;5012658;28;20029;-53
2024/02/23 01:23:19;;;;;;;1.47;0.80;;;5.60;99.90;;;;;;5012850;28;20080;-55
2024/02/23 01:25:44;;;;;;;1.97;0.60;;;5.60;99.90;;;;;;5012791;28;20033;-56
2024/02/23 01:28:10;;;;;;;1.33;0.67;;;5.60;99.90;;;;;;5012595;28;20030;-57
2024/02/23 01:30:35;;;;;;;0.67;0.50;;;5.60;99.90;;;;;;5012676;28;20053;-55
2024/02/23 01:33:01;;;;;;;1.60;0.63;;;5.70;99.90;;;;;;5012845;28;20037;-55
2024/02/23 01:35:27;;;;;;;1.03;0.40;;;5.70;99.90;;;;;;5011208;28;20104;-55
2024/02/23 01:37:53;;;;;;;3.70;1.00;;;5.80;99.90;;;;;;5012761;28;20033;-57
2024/02/23 01:40:19;;;;;;;2.57;1.10;;;5.80;99.90;;;;;;5012680;28;20105;-54
2024/02/23 01:42:45;;;;;;;2.97;0.90;;;5.80;99.90;;;;;;5012585;28;20539;-55
2024/02/23 01:45:10;;;;;;;4.57;1.33;;;5.80;99.90;;;;;;5012428;28;20498;-53
2024/02/23 01:47:36;;;;;;;4.67;1.17;;;5.90;99.90;;;;;;5012453;28;20034;-56
2024/02/23 01:50:02;;;;;;;1.93;1.00;;;5.90;99.90;;;;;;5012114;28;20083;-52
2024/02/23 01:52:29;;;;;;;5.00;1.10;;;5.90;99.90;;;;;;5009925;28;20059;-53
2024/02/23 01:54:55;;;;;;;5.67;1.17;;;5.80;99.90;;;;;;5012209;28;20121;-52
2024/02/23 01:57:23;;;;;;;6.00;1.40;;;5.90;99.90;;;;;;5012234;28;20026;-55
2024/02/23 01:59:49;;;;;;;1.60;0.63;;;5.90;99.90;;;;;;5012051;28;20064;-53
2024/02/23 02:02:16;;;;;;;1.80;0.47;;;5.90;99.90;;;;;;5012019;28;20509;-55
2024/02/23 02:04:41;;;;;;;4.73;0.80;;;6.00;99.90;;;;;;5010494;28;20053;-54
2024/02/23 02:07:07;;;;;;;3.20;0.83;;;6.00;99.90;;;;;;5011993;28;20072;-57
2024/02/23 02:09:33;;;;;;;6.73;1.33;;;6.00;99.90;;;;;;5011675;28;20383;-53
2024/02/23 02:11:58;;;;;;;3.07;1.20;;;6.10;99.90;;;;;;5011905;28;20036;-56
2024/02/23 02:14:25;;;;;;;2.77;0.90;;;6.10;99.90;;;;;;5011847;28;20083;-56
2024/02/23 02:16:50;;;;;;;5.37;1.50;;;6.10;99.90;;;;;;5011930;28;20360;-55
2024/02/23 02:19:16;;;;;;;5.00;2.47;;;6.10;99.90;;;;;;5011581;28;20029;-53
2024/02/23 02:21:41;;;;;;;5.27;2.00;;;6.10;99.90;;;;;;5011505;28;20448;-54
2024/02/23 02:24:07;;;;;;;4.17;1.47;;;6.10;99.90;;;;;;5011736;28;20026;-57
2024/02/23 02:26:36;;;;;;;3.23;1.10;;;6.00;99.90;;;;;;5010138;28;20149;-54
2024/02/23 02:29:01;;;;;;;4.47;1.07;;;6.00;99.90;;;;;;5011762;28;20060;-55
2024/02/23 02:31:27;;;;;;;2.50;0.80;;;6.00;99.90;;;;;;5011359;28;20097;-56
2024/02/23 02:33:52;;;;;;;3.70;0.97;;;5.90;99.90;;;;;;5010174;28;20041;-53
2024/02/23 02:36:18;;;;;;;1.33;0.60;;;5.90;99.90;;;;;;5011469;28;20022;-54
2024/02/23 02:38:44;;;;;;;1.57;0.50;;;5.80;99.90;;;;;;5011563;28;20423;-54
2024/02/23 02:41:09;;;;;;;2.57;0.50;;;5.80;99.90;;;;;;5011334;28;20091;-56
2024/02/23 02:43:35;;;;;;;5.30;0.83;;;5.80;99.90;;;;;;5011503;28;20033;-57
2024/02/23 02:46:00;;;;;;;2.53;0.93;;;5.70;99.90;;;;;;5011145;28;20475;-55
2024/02/23 02:48:26;;;;;;;3.90;0.80;;;5.70;99.90;;;;;;5009819;28;20037;-52
2024/02/23 02:50:52;;;;;;;3.07;0.53;;;5.70;99.90;;;;;;5011014;28;20368;-53
2024/02/23 02:53:18;;;;;;;4.07;1.10;;;5.70;99.90;;;;;;5011102;28;20103;-55
2024/02/23 02:55:44;;;;;;;2.83;0.77;;;5.70;99.90;;;;;;5011267;28;20420;-55
2024/02/23 02:58:12;;;;;;;3.10;0.83;;;5.60;99.90;;;;;;5011156;28;20370;-53
2024/02/23 03:00:38;;;;;;;3.07;0.90;;;5.60;99.90;;;;;;5011084;28;20045;-52
2024/02/23 03:03:03;;;;;;;2.20;1.07;;;5.60;99.90;;;;;;5009493;28;20030;-53
2024/02/23 03:05:29;;;;;;;2.10;0.77;;;5.60;99.90;;;;;;5011058;28;20515;-53
2024/02/23 03:07:55;;;;;;;4.20;1.30;;;5.60;99.90;;;;;;5011137;28;20084;-51
2024/02/23 03:10:20;;;;;;;4.93;1.50;;;5.60;99.90;;;;;;5010805;28;20073;-55
2024/02/23 03:12:46;;;;;;;6.23;1.90;;;5.60;99.90;;;;;;5011190;28;20383;-56
2024/02/23 03:15:12;;;;;;;3.97;1.17;;;5.50;99.90;;;;;;5011092;28;20028;-56
2024/02/23 03:17:38;;;;;;;4.10;1.50;;;5.60;99.90;;;;;;5011435;28;20551;-56
2024/02/23 03:20:10;;;;;;;6.43;1.50;;;5.60;99.90;;;;;;5011258;28;20068;-51
2024/02/23 03:22:39;;;;;;;4.90;0.80;;;5.60;99.90;;;;;;5011229;28;20530;-52
2024/02/23 03:25:08;;;;;;;3.67;0.93;;;5.60;99.90;;;;;;5011050;28;20466;-55
2024/02/23 03:27:36;;;;;;;4.78;1.50;;;5.70;99.90;;;;;;5010872;28;20038;-55
2024/02/23 03:30:03;;;;;;;2.53;0.90;;;5.60;99.90;;;;;;5010665;28;20038;-57
2024/02/23 03:32:31;;;;;;;4.50;0.77;;;5.60;99.90;;;;;;5009529;28;20333;-55
2024/02/23 03:34:56;;;;;;;4.27;0.90;;;5.60;99.90;;;;;;5010792;28;20030;-56
2024/02/23 03:37:22;;;;;;;1.43;0.70;;;5.60;99.90;;;;;;5010820;28;20123;-54
2024/02/23 03:39:49;;;;;;;4.77;0.80;;;5.60;99.90;;;;;;5010632;28;20057;-56
2024/02/23 03:42:14;;;;;;;3.03;0.77;;;5.70;99.90;;;;;;5011004;28;20096;-52
2024/02/23 03:44:42;;;;;;;2.97;0.73;;;5.70;99.90;;;;;;5010484;28;20037;-52
2024/02/23 03:47:08;;;;;;;5.27;1.10;;;5.70;99.90;;;;;;5010811;28;20483;-53
2024/02/23 03:49:33;;;;;;;8.37;0.93;;;5.60;99.90;;;;;;5009018;28;20137;-56
2024/02/23 03:51:59;;;;;;;3.57;0.83;;;5.60;99.90;;;;;;5010385;28;20030;-56
2024/02/23 03:54:24;;;;;;;3.50;0.70;;;5.70;99.90;;;;;;5009426;28;20106;-55
2024/02/23 03:56:50;;;;;;;3.97;0.63;;;5.70;99.90;;;;;;5010659;28;20026;-53
2024/02/23 03:59:16;;;;;;;1.07;0.43;;;5.70;99.90;;;;;;5010323;28;20022;-56
2024/02/23 04:01:42;;;;;;;5.70;0.77;;;5.70;99.90;;;;;;5010563;28;20184;-50
2024/02/23 04:04:07;;;;;;;6.97;0.60;;;5.70;99.90;;;;;;5010609;28;20037;-55
2024/02/23 04:06:36;;;;;;;3.23;0.40;;;5.80;99.90;;;;;;5010497;28;20455;-52
2024/02/23 04:09:04;;;;;;;3.80;0.47;;;5.80;99.90;;;;;;5010580;28;20081;-52
2024/02/23 04:11:30;;;;;;;4.63;0.50;;;5.80;99.90;;;;;;5010341;28;20029;-50
2024/02/23 04:13:56;;;;;;;1.73;0.20;;;5.70;99.90;;;;;;5010495;28;20033;-53
2024/02/23 04:16:25;;;;;;;3.40;0.80;;;5.70;99.90;;;;;;5012610;28;20025;-51
2024/02/23 04:18:51;;;;;;;4.18;0.45;;;5.80;99.90;;;;;;5014266;28;20129;-53
2024/02/23 04:21:16;;;;;;;4.30;0.70;;;5.80;99.90;;;;;;5013746;28;20080;-54
2024/02/23 04:23:43;;;;;;;2.10;0.30;;;5.80;99.90;;;;;;5014023;28;20434;-54
2024/02/23 04:26:09;;;;;;;2.03;0.37;;;5.90;99.90;;;;;;5014091;28;20103;-54
2024/02/23 04:28:37;;;;;;;3.87;0.40;;;5.90;99.90;;;;;;5013779;28;20030;-52
2024/02/23 04:31:03;;;;;;;2.47;0.60;;;5.90;99.90;;;;;;5013704;28;20122;-54
2024/02/23 04:33:28;;;;;;;4.90;0.60;;;5.90;99.90;;;;;;5013850;28;20038;-54
2024/02/23 04:35:54;;;;;;;2.63;0.60;;;5.90;99.90;;;;;;5013675;28;20100;-54
2024/02/23 04:38:19;;;;;;;5.23;0.33;;;5.90;99.90;;;;;;5013683;28;20105;-53
2024/02/23 04:40:45;;;;;;;2.43;0.60;;;5.90;99.90;;;;;;5013631;28;20466;-53
2024/02/23 04:43:11;;;;;;;4.63;0.60;;;6.00;99.90;;;;;;5012256;28;20053;-52
2024/02/23 04:45:36;;;;;;;1.67;0.37;;;5.90;99.90;;;;;;5013432;28;20103;-54
2024/02/23 04:48:03;;;;;;;2.33;0.40;;;5.90;99.90;;;;;;5013622;28;20092;-52
2024/02/23 04:50:29;;;;;;;3.60;1.00;;;5.90;99.90;;;;;;5013289;28;20120;-53
2024/02/23 04:52:54;;;;;;;1.10;0.30;;;5.90;99.90;;;;;;5013528;28;20072;-53
2024/02/23 04:55:20;;;;;;;1.30;0.40;;;5.90;99.90;;;;;;5013416;28;20026;-52
2024/02/23 04:57:46;;;;;;;4.30;1.27;;;5.90;99.90;;;;;;5013304;28;20133;-52
2024/02/23 05:00:12;;;;;;;3.67;0.43;;;5.90;99.90;;;;;;5013552;28;20398;-52
2024/02/23 05:02:37;;;;;;;0.47;0.23;;;5.90;99.90;;;;;;5013719;28;20131;-53
2024/02/23 05:05:04;;;;;;;3.47;0.40;;;5.90;99.90;;;;;;5013569;28;20030;-53
2024/02/23 05:07:31;;;;;;;2.77;0.20;;;5.90;99.90;;;;;;5013474;28;20050;-56
2024/02/23 05:09:57;;;;;;;1.60;0.63;;;5.90;99.90;;;;;;5013167;28;20049;-52
2024/02/23 05:12:23;;;;;;;0.77;0.20;;;5.90;99.90;;;;;;5013259;28;20026;-55
2024/02/23 05:14:48;;;;;;;1.87;0.40;;;5.90;99.90;;;;;;5013209;28;20030;-56
2024/02/23 05:17:14;;;;;;;6.80;0.73;;;5.90;99.90;;;;;;5013061;28;20038;-51
2024/02/23 05:19:39;;;;;;;1.97;0.37;;;5.90;99.90;;;;;;5012856;28;20042;-55
2024/02/23 05:22:05;;;;;;;3.77;0.50;;;5.90;99.90;;;;;;5013027;28;20057;-54
2024/02/23 05:24:30;;;;;;;0.70;0.40;;;5.80;99.90;;;;;;5011567;28;20041;-55
2024/02/23 05:26:57;;;;;;;3.70;0.53;;;5.90;99.90;;;;;;5012671;28;20038;-54
2024/02/23 05:29:24;;;;;;;4.17;1.10;;;5.90;99.90;;;;;;5012779;28;20034;-54
2024/02/23 05:31:51;;;;;;;4.53;0.40;;;5.90;99.90;;;;;;5012956;28;20033;-55
2024/02/23 05:34:18;;;;;;;4.83;0.57;;;5.90;99.90;;;;;;5012612;28;20104;-53
2024/02/23 05:36:45;;;;;;;0.73;0.27;;;5.90;99.90;;;;;;5012831;28;20046;-54
2024/02/23 05:39:12;;;;;;;0.70;0.20;;;5.90;99.90;;;;;;5012782;28;20116;-53
2024/02/23 05:41:38;;;;;;;5.63;0.30;;;5.90;99.90;;;;;;5012476;28;20034;-54
2024/02/23 05:44:05;;;;;;;5.17;0.90;;;6.00;99.90;;;;;;5012692;28;20037;-54
2024/02/23 05:46:32;;;;;;;0.90;0.30;;;6.00;99.90;;;;;;5012640;28;20030;-53
2024/02/23 05:48:58;;;;;;;4.80;0.47;;;6.00;99.90;;;;;;5012666;28;20029;-54
2024/02/23 05:51:24;;;;;;;3.13;0.50;;;6.00;99.90;;;;;;5012268;28;20033;-53
2024/02/23 05:53:50;;;;;;;3.23;0.60;;;6.00;99.90;;;;;;5012521;28;20037;-54
2024/02/23 05:56:15;;;;;;;3.57;0.43;;;6.00;99.90;;;;;;5010958;28;20034;-56
2024/02/23 05:58:41;;;;;;;1.63;0.50;;;6.00;99.90;;;;;;5012622;28;20057;-55
2024/02/23 06:01:07;;;;;;;1.50;0.20;;;6.00;99.90;;;;;;5012179;28;20041;-52
2024/02/23 06:03:32;;;;;;;1.70;0.47;;;6.00;99.90;;;;;;5012249;28;20037;-53
2024/02/23 06:05:58;;;;;;;2.93;0.47;;;6.00;99.90;;;;;;5012369;28;20052;-55
2024/02/23 06:08:24;;;;;;;4.40;0.50;;;6.00;99.90;;;;;;5011797;28;20041;-58
2024/02/23 06:10:49;;;;;;;1.43;0.60;;;6.10;99.90;;;;;;5011299;28;20025;-56
2024/02/23 06:13:15;;;;;;;3.00;0.50;;;6.10;99.90;;;;;;5011526;28;20038;-56
2024/02/23 06:15:42;;;;;;;3.03;0.67;;;6.10;99.90;;;;;;5011711;28;20025;-53
2024/02/23 06:18:07;;;;;;;3.77;0.60;;;6.10;99.90;;;;;;5011751;28;20491;-54
2024/02/23 06:20:33;;;;;;;6.80;0.80;;;6.10;99.90;;;;;;5011086;28;20034;-51
2024/02/23 06:22:58;;;;;;;2.57;0.70;;;6.10;99.90;;;;;;5011604;28;20026;-53
2024/02/23 06:25:24;;;;;;;3.37;0.70;;;6.10;99.90;;;;;;5010290;28;20477;-54
2024/02/23 06:27:49;;;;;;;0.80;0.27;;;6.10;99.90;;;;;;5011418;28;20029;-54
2024/02/23 06:30:15;;;;;;;3.43;0.70;;;6.10;99.90;;;;;;5011383;28;20057;-57
2024/02/23 06:32:41;;;;;;;2.23;0.40;;;6.20;99.90;;;;;;5011896;28;20455;-52
2024/02/23 06:35:07;;;;;;;2.60;0.73;;;6.10;99.90;;;;;;5011592;28;20026;-54
2024/02/23 06:37:33;;;;;;;3.63;0.40;;;6.10;99.90;;;;;;5011470;28;20057;-55
2024/02/23 06:39:59;;;;;;;6.77;0.70;;;6.20;99.90;;;;;;5010295;28;20034;-53
2024/02/23 06:42:25;;;;;;;2.47;0.57;;;6.20;99.90;;;;;;5011735;28;20038;-52
2024/02/23 06:44:51;;;;;;;2.20;0.43;;;6.10;99.90;;;;;;5011717;28;20041;-55
2024/02/23 06:47:16;;;;;;;1.80;0.37;;;6.20;99.90;;;;;;5011549;28;20033;-53
2024/02/23 06:49:43;;;;;;;4.37;0.63;;;6.20;99.90;;;;;;5011005;28;20035;-56
2024/02/23 06:52:09;;;;;;;5.43;1.00;;;6.10;99.90;;;;;;5011264;28;20033;-51
2024/02/23 06:54:35;;;;;;;1.97;0.70;;;6.20;99.90;;;;;;5010957;28;20498;-52
2024/02/23 06:57:00;;;;;;;4.57;0.70;;;6.20;99.90;;;;;;5010769;28;20117;-55
2024/02/23 06:59:26;;;;;;;3.93;0.97;;;6.20;99.90;;;;;;5010381;28;20072;-53
2024/02/23 07:01:52;;;;;;;5.17;1.00;;;6.20;99.90;;;;;;5010884;28;20014;-52
2024/02/23 07:04:18;;;;;;;5.30;0.60;;;6.20;99.90;;;;;;5010589;28;20427;-55
2024/02/23 07:06:44;;;;;;;2.77;0.53;;;6.20;99.90;;;;;;5010934;28;20099;-52
2024/02/23 07:09:11;;;;;;;3.70;0.50;;;6.30;99.90;;;;;;5009634;28;20033;-54
2024/02/23 07:11:38;;;;;;;5.23;0.80;;;6.30;99.90;;;;;;5006577;28;20038;-51
2024/02/23 07:14:04;;;;;;;7.00;0.77;;;6.30;99.90;;;;;;5010526;28;20026;-54
2024/02/23 07:16:29;;;;;;;4.70;0.70;;;6.40;99.90;;;;;;5011581;28;20026;-51
2024/02/23 07:18:56;;;;;;;5.83;0.50;;;6.40;99.90;;;;;;5011822;28;20022;-52
2024/02/23 07:21:22;;;;;;;0.87;0.50;;;6.50;99.90;;;;;;5011161;28;20660;-55
2024/02/23 07:23:48;;;;;;;1.10;0.40;;;6.60;99.90;;;;;;5010227;28;20112;-52
2024/02/23 07:26:13;;;;;;;4.20;0.80;;;6.60;99.90;;;;;;5012726;28;20034;-52
2024/02/23 07:28:39;;;;;;;4.03;0.40;;;6.70;99.90;;;;;;5012723;28;20045;-52
2024/02/23 07:31:04;;;;;;;2.10;0.43;;;6.80;99.90;;;;;;5011588;28;20124;-55
2024/02/23 07:33:30;;;;;;;1.50;0.50;;;6.80;99.90;;;;;;5012978;28;20514;-53
2024/02/23 07:35:55;;;;;;;1.63;0.70;;;6.80;99.90;;;;;;5012333;28;20120;-56
2024/02/23 07:38:21;;;;;;;2.43;0.60;;;6.80;99.90;;;;;;5010425;28;20030;-55
2024/02/23 07:40:47;;;;;;;2.67;0.50;;;6.80;99.90;;;;;;5010244;28;20463;-55
2024/02/23 07:43:12;;;;;;;3.57;1.17;;;6.80;99.90;;;;;;5010366;28;20117;-52
2024/02/23 07:45:38;;;;;;;1.67;0.37;;;6.80;99.90;;;;;;5010223;28;20049;-55
2024/02/23 07:48:05;;;;;;;4.17;0.50;;;6.80;99.90;;;;;;5010360;28;20030;-55
2024/02/23 07:50:30;;;;;;;2.43;0.40;;;6.80;99.90;;;;;;5010948;28;20030;-52
2024/02/23 07:52:56;;;;;;;0.73;0.40;;;6.80;99.90;;;;;;5012716;28;20052;-56
2024/02/23 07:55:22;;;;;;;1.13;0.40;;;6.90;99.90;;;;;;5014197;28;20026;-57
2024/02/23 07:57:48;;;;;;;0.87;0.43;;;6.90;99.90;;;;;;5014235;28;20104;-56
2024/02/23 08:00:14;;;;;;;1.37;0.63;;;6.90;99.90;;;;;;5013963;28;20029;-54
2024/02/23 08:02:39;;;;;;;4.97;0.67;;;6.90;99.90;;;;;;5012484;28;20084;-54
2024/02/23 08:05:06;;;;;;;3.27;0.60;;;7.00;99.90;;;;;;5013756;28;20460;-55
2024/02/23 08:07:32;;;;;;;3.17;0.80;;;7.10;99.90;;;;;;5014019;28;20096;-56
2024/02/23 08:09:57;;;;;;;1.33;0.57;;;7.30;99.90;;;;;;5013703;28;20435;-56
2024/02/23 08:12:23;;;;;;;2.80;0.80;;;7.50;99.90;;;;;;5013961;28;20034;-55
2024/02/23 08:14:53;;;;;;;1.30;0.47;;;7.40;99.90;;;;;;5014251;28;20026;-56
2024/02/23 08:17:18;;;;;;;;;;;7.30;99.90;;;;;;5014543;28;20390;-56
2024/02/23 08:19:44;;;;;;;4.30;0.47;;;7.30;99.90;;;;;;5012260;28;19913;-54
2024/02/23 08:22:10;;;;;;;2.30;0.53;;;7.60;99.90;;;;;;5013952;28;20045;-53
2024/02/23 08:24:35;;;;;;;3.07;0.43;;;8.00;99.90;;;;;;5013819;28;20041;-53
2024/02/23 08:27:02;;;;;;;5.03;0.80;;;8.40;99.90;;;;;;5013802;28;20434;-53
2024/02/23 08:29:28;;;;;;;1.53;0.50;;;8.70;99.90;;;;;;5011953;28;20030;-51
2024/02/23 08:31:53;;;;;;;0.80;0.50;;;9.10;99.90;;;;;;5013544;28;20083;-54
2024/02/23 08:34:19;;;;;;;3.90;1.00;;;9.40;99.90;;;;;;5013440;28;20026;-54
2024/02/23 08:36:45;;;;;;;3.97;0.60;;;9.50;99.90;;;;;;5013608;28;20450;-55
2024/02/23 08:39:11;;;;;;;2.00;0.70;;;9.50;99.90;;;;;;5013410;28;20092;-55
2024/02/23 08:41:36;;;;;;;0.80;0.47;;;9.30;99.90;;;;;;5017945;28;20156;-54
2024/02/23 08:44:02;;;;;;;3.40;0.57;;;9.20;99.90;;;;;;5027009;28;20084;-54
2024/02/23 08:46:28;;;;;;;1.67;0.57;;;9.10;99.90;;;;;;5013193;28;20034;-57
2024/02/23 08:48:53;;;;;;;4.80;0.40;;;9.00;99.90;;;;;;5013389;28;20034;-54
2024/02/23 08:51:19;;;;;;;8.27;3.40;;;8.80;99.90;;;;;;5013041;28;20117;-52
2024/02/23 08:53:45;;;;;;;10.87;3.67;;;8.70;99.90;;;;;;5013508;28;20029;-53
2024/02/23 08:56:12;;;;;;;5.33;1.67;;;8.70;99.90;;;;;;5013198;28;20367;-55
2024/02/23 08:58:38;;;;;;;3.53;0.70;;;8.80;99.90;;;;;;5013295;28;20402;-52
2024/02/23 09:01:04;;;;;;;3.43;0.90;;;8.80;99.90;;;;;;5012370;28;20049;-54
2024/02/23 09:03:31;;;;;;;3.50;0.50;;;9.10;99.90;;;;;;5012846;28;20030;-52
2024/02/23 09:05:57;;;;;;;1.43;0.30;;;9.10;99.90;;;;;;5013219;28;20041;-55
2024/02/23 09:08:23;;;;;;;1.63;0.50;;;9.00;99.90;;;;;;5013024;28;20034;-55
2024/02/23 09:10:48;;;;;;;2.63;0.70;;;9.30;99.90;;;;;;5012792;28;20049;-55
2024/02/23 09:13:15;;;;;;;2.70;0.50;;;9.50;99.90;;;;;;5013413;28;20034;-51
2024/02/23 09:15:42;;;;;;;2.63;0.53;;;9.60;99.90;;;;;;5013136;28;20042;-53
2024/02/23 09:18:08;;;;;;;2.13;0.50;;;9.70;99.90;;;;;;5012913;28;20030;-52
2024/02/23 09:20:33;;;;;;;2.00;0.30;;;9.80;99.90;;;;;;5012648;28;20022;-55
2024/02/23 09:22:59;;;;;;;0.70;0.30;;;9.70;99.90;;;;;;5012865;28;20373;-54
2024/02/23 09:25:24;;;;;;;2.60;0.53;;;9.60;99.90;;;;;;5012962;28;20036;-57
2024/02/23 09:27:50;;;;;;;1.13;0.40;;;9.60;99.90;;;;;;5012785;28;20040;-56
2024/02/23 09:30:16;;;;;;;5.80;0.83;;;9.50;99.90;;;;;;5012560;28;20097;-57
2024/02/23 09:32:42;;;;;;;1.00;0.30;;;9.40;99.90;;;;;;5011337;28;20029;-57
2024/02/23 09:35:07;;;;;;;1.17;0.33;;;9.20;99.90;;;;;;5012940;28;20034;-56
2024/02/23 09:37:33;;;;;;;3.77;1.00;;;8.90;99.90;;;;;;5012618;28;20034;-54
2024/02/23 09:39:59;;;;;;;3.77;0.73;;;8.60;99.90;;;;;;5012060;28;20247;-56
2024/02/23 09:42:25;;;;;;;5.17;0.40;;;8.50;99.90;;;;;;5012360;28;20041;-56
2024/02/23 09:44:58;;;;;;;2.53;0.33;;;8.50;99.90;;;;;;5012434;28;20044;-55
2024/02/23 09:47:31;;;;;;;3.53;0.33;;;8.40;99.90;;;;;;5012630;28;20048;-56
2024/02/23 09:49:56;;;;;;;7.30;0.50;;;8.30;99.90;;;;;;5012430;28;20172;-56
2024/02/23 09:52:22;;;;;;;2.00;0.40;;;8.20;99.90;;;;;;5011424;28;20113;-58
2024/02/23 09:54:48;;;;;;;2.57;0.50;;;8.10;99.90;;;;;;5011430;28;20399;-56
2024/02/23 09:57:15;;;;;;;0.93;0.40;;;8.10;99.90;;;;;;5012573;28;20044;-54
2024/02/23 09:59:44;;;;;;;4.03;0.60;;;8.10;99.90;;;;;;5011892;28;20069;-56
2024/02/23 10:02:15;;;;;;;3.55;0.65;;;8.00;99.90;;;;;;5012554;28;20479;-53
2024/02/23 10:04:43;;;;;;;2.97;0.43;;;8.00;99.90;;;;;;5011934;28;20040;-57
2024/02/23 10:07:09;;;;;;;2.60;0.60;;;8.10;99.90;;;;;;5011781;28;20044;-57
2024/02/23 10:09:35;;;;;;;0.83;0.33;;;8.10;99.90;;;;;;5011668;28;20144;-57
2024/02/23 10:12:04;;;;;;;2.10;0.50;;;8.00;99.90;;;;;;5011670;28;20085;-57
2024/02/23 10:14:29;;;;;;;;;;;8.20;99.90;;;;;;5011377;28;20052;-56
2024/02/23 10:16:55;;;;;;;2.00;0.40;;;8.20;99.90;;;;;;5011742;28;19913;-57
2024/02/23 10:19:21;;;;;;;1.03;0.40;;;8.20;99.90;;;;;;5011609;28;20037;-56
2024/02/23 10:21:47;;;;;;;6.33;0.67;;;8.30;99.90;;;;;;5011349;28;20030;-55
2024/02/23 10:24:16;;;;;;;3.80;0.47;;;8.40;99.90;;;;;;5011726;28;20029;-56
2024/02/23 10:26:42;;;;;;;3.60;0.40;;;8.40;99.90;;;;;;5011376;28;20026;-54
2024/02/23 10:29:08;;;;;;;2.63;0.60;;;8.40;99.90;;;;;;5011556;28;20021;-54
2024/02/23 10:31:38;;;;;;;2.63;0.57;;;8.30;99.90;;;;;;5011184;28;20069;-52
2024/02/23 10:34:13;;;;;;;3.23;0.30;;;8.30;99.90;;;;;;5011201;28;20034;-56
2024/02/23 10:36:42;;;;;;;2.77;0.40;;;8.30;99.90;;;;;;5011032;28;20038;-55
2024/02/23 10:39:09;;;;;;;2.20;0.40;;;8.30;99.90;;;;;;5011245;28;20036;-51
2024/02/23 10:41:39;;;;;;;3.13;0.73;;;8.30;99.90;;;;;;5010740;28;20037;-53
2024/02/23 10:44:05;;;;;;;;;;;8.30;99.90;;;;;;5011449;28;20037;-53
2024/02/23 10:46:32;;;;;;;0.63;0.40;;;8.30;99.90;;;;;;5010894;28;19932;-56
2024/02/23 10:48:59;;;;;;;0.73;0.27;;;8.30;99.90;;;;;;5011146;28;20030;-55
2024/02/23 10:51:25;;;;;;;3.40;0.67;;;8.30;99.90;;;;;;5010621;28;20037;-55
2024/02/23 10:53:52;;;;;;;1.13;0.40;;;8.30;99.90;;;;;;5009319;28;20026;-51
2024/02/23 10:56:19;;;;;;;2.03;0.63;;;8.20;99.90;;;;;;5010818;28;20108;-56
2024/02/23 10:58:45;;;;;;;1.60;0.33;;;8.30;99.90;;;;;;5010858;28;20061;-54
2024/02/23 11:01:12;;;;;;;5.30;0.50;;;8.40;99.90;;;;;;5009254;28;20215;-54
2024/02/23 11:03:41;;;;;;;3.10;0.40;;;8.50;99.90;;;;;;5010861;28;20033;-53
2024/02/23 11:06:07;;;;;;;2.17;0.40;;;8.50;99.90;;;;;;5010677;28;20125;-55
2024/02/23 11:08:33;;;;;;;5.60;0.40;;;8.50;99.90;;;;;;5010416;28;20040;-55
2024/02/23 11:11:10;;;;;;;1.13;0.40;;;8.50;99.90;;;;;;5010539;28;20068;-55
2024/02/23 11:13:40;;;;;;;3.23;0.60;;;8.50;99.90;;;;;;5010553;28;20065;-53
2024/02/23 11:16:06;;;;;;;;;;;8.50;99.90;;;;;;5024140;28;20039;-58
2024/02/23 11:18:39;;;;;;;2.80;0.50;;;8.50;99.90;;;;;;5030546;28;19909;-55
2024/02/23 11:21:08;;;;;;;1.23;0.27;;;8.50;99.90;;;;;;5029690;28;20039;-54
2024/02/23 11:23:43;;;;;;;;;;;8.60;99.90;;;;;;5031513;28;20079;-51
2024/02/23 11:26:12;;;;;;;3.40;0.30;;;8.60;99.90;;;;;;5034706;28;19931;-56
2024/02/23 11:28:42;;;;;;;;;;;8.50;99.90;;;;;;5035487;28;20380;-56
2024/02/23 11:31:15;;;;;;;2.07;0.57;;;8.50;99.90;;;;;;5034949;28;19920;-53
2024/02/23 11:33:48;;;;;;;1.27;0.40;;;8.50;99.90;;;;;;5033563;28;20037;-53
2024/02/23 11:36:22;;;;;;;0.43;0.23;;;8.60;99.90;;;;;;5034765;28;20029;-54
2024/02/23 11:38:48;;;;;;;2.83;0.60;;;8.50;99.90;;;;;;5034784;28;20544;-55
2024/02/23 11:41:14;;;;;;;2.13;0.70;;;8.50;99.90;;;;;;5034460;28;20034;-54
2024/02/23 11:43:41;;;;;;;2.43;0.43;;;8.60;99.90;;;;;;5034775;28;20367;-55
2024/02/23 11:46:07;;;;;;;2.33;0.40;;;8.60;99.90;;;;;;5034281;28;20044;-56
2024/02/23 11:48:33;;;;;;;1.07;0.33;;;8.60;99.90;;;;;;5034591;28;20132;-54
2024/02/23 11:50:59;;;;;;;2.23;0.40;;;8.50;99.90;;;;;;5034151;28;20116;-52
2024/02/23 11:53:27;;;;;;;3.23;0.43;;;8.50;99.90;;;;;;5034331;28;20127;-53
2024/02/23 11:55:53;;;;;;;2.13;0.43;;;8.50;99.90;;;;;;5034381;28;20363;-53
2024/02/23 11:58:18;;;;;;;1.93;0.30;;;8.50;99.90;;;;;;5034289;28;20021;-54
2024/02/23 12:00:45;;;;;;;1.30;0.20;;;8.50;99.90;;;;;;5032756;28;20438;-53
2024/02/23 12:03:11;;;;;;;4.60;0.50;;;8.50;99.90;;;;;;5033031;28;20130;-55
2024/02/23 12:05:37;;;;;;;3.97;0.50;;;8.60;99.90;;;;;;5034367;28;20065;-53
2024/02/23 12:08:03;;;;;;;3.43;0.50;;;8.60;99.90;;;;;;5034259;28;20033;-54
2024/02/23 12:10:29;;;;;;;3.80;0.30;;;8.60;99.90;;;;;;5033869;28;20029;-52
2024/02/23 12:12:55;;;;;;;2.13;0.70;;;8.60;99.90;;;;;;5032577;28;20033;-54
2024/02/23 12:15:21;;;;;;;1.43;0.50;;;8.70;99.90;;;;;;5033919;28;20470;-51
2024/02/23 12:17:47;;;;;;;3.00;0.50;;;8.70;99.90;;;;;;5033994;28;20030;-55
2024/02/23 12:20:13;;;;;;;5.07;0.53;;;8.70;99.90;;;;;;5033749;28;20037;-55
2024/02/23 12:22:40;;;;;;;1.07;0.30;;;8.60;99.90;;;;;;5033859;28;20029;-55
2024/02/23 12:25:06;;;;;;;2.43;0.50;;;8.70;99.90;;;;;;5033931;28;20120;-55
2024/02/23 12:27:32;;;;;;;3.67;0.60;;;8.80;99.90;;;;;;5032397;28;20034;-54
2024/02/23 12:29:59;;;;;;;2.57;0.33;;;8.80;99.90;;;;;;5033647;28;20041;-51
2024/02/23 12:32:25;;;;;;;2.07;0.40;;;8.80;99.90;;;;;;5033664;28;20035;-54
2024/02/23 12:34:52;;;;;;;8.10;0.80;;;8.80;99.90;;;;;;5033740;28;20116;-55
2024/02/23 12:37:18;;;;;;;2.47;0.40;;;8.80;99.90;;;;;;5032717;28;20040;-54
2024/02/23 12:39:44;;;;;;;1.67;0.50;;;8.80;99.90;;;;;;5033465;28;20033;-53
2024/02/23 12:42:10;;;;;;;2.07;0.50;;;8.70;99.90;;;;;;5033459;28;20029;-54
2024/02/23 12:44:36;;;;;;;4.90;0.60;;;8.80;99.90;;;;;;5033383;28;20617;-55
2024/02/23 12:47:01;;;;;;;3.90;0.90;;;8.80;99.90;;;;;;5033842;28;20544;-54
2024/02/23 12:49:27;;;;;;;3.40;0.50;;;8.90;99.90;;;;;;5033118;28;20037;-53
2024/02/23 12:51:52;;;;;;;2.10;0.87;;;8.90;99.90;;;;;;5033359;28;20094;-51